Time;durP1;ratioP1;P1;durP2;ratioP2;P2;SDS_P1;SDS_P2;PMS_P1;PMS_P2;Temp;Humidity;BMP_temperature;BMP_pressure;BME280_temperature;BME280_humidity;BME280_pressure;Samples;Min_cycle;Max_cycle;Signal;HPM_P1;HPM_P2
2022/09/09 00:00:40;;;;;;;0.00;0.00;;;;;;;;;;5112632;27;20533;-59
2022/09/09 00:03:11;;;;;;;0.00;0.00;;;;;;;;;;5125346;27;20015;-58
2022/09/09 00:05:57;;;;;;;0.00;0.00;;;;;;;;;;5111600;28;20015;-58
2022/09/09 00:08:26;;;;;;;0.00;0.00;;;;;;;;;;5111365;28;20035;-58
2022/09/09 00:10:58;;;;;;;0.00;0.00;;;;;;;;;;5111099;27;20028;-59
2022/09/09 00:13:46;;;;;;;0.00;0.00;;;;;;;;;;5114387;27;20388;-58
2022/09/09 00:16:16;;;;;;;0.00;0.00;;;;;;;;;;5110524;28;20122;-58
2022/09/09 00:18:52;;;;;;;0.00;0.00;;;;;;;;;;5111437;27;20128;-58
2022/09/09 00:21:17;;;;;;;0.00;0.00;;;;;;;;;;5111779;27;20043;-59
2022/09/09 00:23:51;;;;;;;0.00;0.00;;;;;;;;;;5111603;28;20464;-58
2022/09/09 00:26:16;;;;;;;0.00;0.00;;;;;;;;;;5111417;28;20352;-58
2022/09/09 00:29:00;;;;;;;0.00;0.00;;;;;;;;;;5123249;27;20024;-58
2022/09/09 00:31:27;;;;;;;0.00;0.00;;;;;;;;;;5113898;27;20254;-59
2022/09/09 00:33:53;;;;;;;0.00;0.00;;;;;;;;;;5122535;27;20028;-58
2022/09/09 00:36:22;;;;;;;0.00;0.00;;;;;;;;;;5111023;28;20027;-58
2022/09/09 00:38:49;;;;;;;0.00;0.00;;;;;;;;;;5111501;28;20053;-58
2022/09/09 00:41:34;;;;;;;0.00;0.00;;;;;;;;;;5113240;27;20073;-59
2022/09/09 00:44:10;;;;;;;0.00;0.00;;;;;;;;;;5111674;27;20422;-58
2022/09/09 00:46:43;;;;;;;0.00;0.00;;;;;;;;;;5110842;28;20020;-58
2022/09/09 00:49:11;;;;;;;0.00;0.00;;;;;;;;;;5122708;27;20118;-59
2022/09/09 00:51:42;;;;;;;0.00;0.00;;;;;;;;;;5111920;27;20780;-59
2022/09/09 00:54:26;;;;;;;0.00;0.00;;;;;;;;;;5110308;27;20019;-59
2022/09/09 00:56:51;;;;;;;0.00;0.00;;;;;;;;;;5110486;28;20041;-58
2022/09/09 00:59:24;;;;;;;0.00;0.00;;;;;;;;;;5125338;27;20027;-59
2022/09/09 01:01:50;;;;;;;0.00;0.00;;;;;;;;;;5110981;27;20305;-58
2022/09/09 01:04:20;;;;;;;0.00;0.00;;;;;;;;;;5110913;27;20043;-58
2022/09/09 01:06:46;;;;;;;;;;;;;;;;;;5111374;27;20012;-59
2022/09/09 01:09:19;;;;;;;0.00;0.00;;;;;;;;;;5112423;27;19907;-59
2022/09/09 01:11:45;;;;;;;0.00;0.00;;;;;;;;;;5110830;28;20019;-60
2022/09/09 01:14:13;;;;;;;0.00;0.00;;;;;;;;;;5110224;28;20046;-59
2022/09/09 01:16:38;;;;;;;0.00;0.00;;;;;;;;;;5110244;27;20030;-58
2022/09/09 01:19:07;;;;;;;0.43;0.30;;;;;;;;;;5109830;27;20032;-59
2022/09/09 01:21:50;;;;;;;0.00;0.00;;;;;;;;;;5110208;28;20035;-59
2022/09/09 01:24:34;;;;;;;0.00;0.00;;;;;;;;;;5109709;28;20097;-59
2022/09/09 01:27:00;;;;;;;0.00;0.00;;;;;;;;;;5109615;28;20020;-57
2022/09/09 01:29:26;;;;;;;0.00;0.00;;;;;;;;;;5119456;27;20063;-59
2022/09/09 01:31:58;;;;;;;0.00;0.00;;;;;;;;;;5111508;27;20030;-59
2022/09/09 01:34:25;;;;;;;0.00;0.00;;;;;;;;;;5115764;27;20080;-60
2022/09/09 01:36:57;;;;;;;0.00;0.00;;;;;;;;;;5110081;28;20058;-60
2022/09/09 01:39:22;;;;;;;0.00;0.00;;;;;;;;;;5112477;27;20027;-59
2022/09/09 01:41:47;;;;;;;0.00;0.00;;;;;;;;;;5110527;27;20533;-59
2022/09/09 01:44:13;;;;;;;0.00;0.00;;;;;;;;;;5111983;27;20034;-60
2022/09/09 01:46:38;;;;;;;0.00;0.00;;;;;;;;;;5109548;28;20024;-58
2022/09/09 01:49:04;;;;;;;0.00;0.00;;;;;;;;;;5109164;28;20020;-59
2022/09/09 01:51:30;;;;;;;0.00;0.00;;;;;;;;;;5109801;28;20047;-59
2022/09/09 01:53:55;;;;;;;0.00;0.00;;;;;;;;;;5109233;28;20054;-59
2022/09/09 01:56:21;;;;;;;0.00;0.00;;;;;;;;;;5109745;28;20070;-59
2022/09/09 01:58:46;;;;;;;0.00;0.00;;;;;;;;;;5117422;27;20039;-59
2022/09/09 02:01:23;;;;;;;0.00;0.00;;;;;;;;;;5129517;27;20023;-59
2022/09/09 02:03:52;;;;;;;0.00;0.00;;;;;;;;;;5119332;27;20269;-59
2022/09/09 02:06:20;;;;;;;0.00;0.00;;;;;;;;;;5117213;27;20027;-59
2022/09/09 02:08:46;;;;;;;0.00;0.00;;;;;;;;;;5110793;27;20035;-59
2022/09/09 02:11:13;;;;;;;0.00;0.00;;;;;;;;;;5109386;28;20030;-59
2022/09/09 02:13:39;;;;;;;0.00;0.00;;;;;;;;;;5109148;28;20023;-59
2022/09/09 02:16:09;;;;;;;0.00;0.00;;;;;;;;;;5109008;28;20365;-59
2022/09/09 02:18:44;;;;;;;0.00;0.00;;;;;;;;;;5109431;28;20031;-58
2022/09/09 02:21:11;;;;;;;0.00;0.00;;;;;;;;;;5108799;28;20077;-58
2022/09/09 02:23:39;;;;;;;0.00;0.00;;;;;;;;;;5109443;28;20028;-59
2022/09/09 02:26:05;;;;;;;0.00;0.00;;;;;;;;;;5108963;28;20157;-59
2022/09/09 02:28:32;;;;;;;0.00;0.00;;;;;;;;;;5114700;27;20047;-59
2022/09/09 02:30:58;;;;;;;0.00;0.00;;;;;;;;;;5129025;27;20029;-59
2022/09/09 02:33:26;;;;;;;0.00;0.00;;;;;;;;;;5123518;27;20472;-59
2022/09/09 02:35:52;;;;;;;0.00;0.00;;;;;;;;;;5110410;28;20055;-59
2022/09/09 02:38:18;;;;;;;0.00;0.00;;;;;;;;;;5110641;28;20080;-59
2022/09/09 02:40:43;;;;;;;0.00;0.00;;;;;;;;;;5126248;27;20031;-59
2022/09/09 02:43:09;;;;;;;0.00;0.00;;;;;;;;;;5116569;27;20020;-59
2022/09/09 02:45:42;;;;;;;0.00;0.00;;;;;;;;;;5113186;28;20019;-58
2022/09/09 02:48:07;;;;;;;0.00;0.00;;;;;;;;;;5111299;28;20410;-58
2022/09/09 02:50:43;;;;;;;0.00;0.00;;;;;;;;;;5113271;28;20031;-58
2022/09/09 02:53:20;;;;;;;0.00;0.00;;;;;;;;;;5112830;28;20265;-58
2022/09/09 02:55:55;;;;;;;0.00;0.00;;;;;;;;;;5113029;27;20020;-58
2022/09/09 02:58:20;;;;;;;0.00;0.00;;;;;;;;;;5115079;27;20048;-59
2022/09/09 03:00:46;;;;;;;0.00;0.00;;;;;;;;;;5129290;27;20054;-58
2022/09/09 03:03:12;;;;;;;0.00;0.00;;;;;;;;;;5119614;27;20522;-59
2022/09/09 03:05:38;;;;;;;0.00;0.00;;;;;;;;;;5115790;27;20015;-59
2022/09/09 03:08:03;;;;;;;0.00;0.00;;;;;;;;;;5113597;27;20479;-59
2022/09/09 03:10:29;;;;;;;0.00;0.00;;;;;;;;;;5119160;27;20103;-59
2022/09/09 03:12:55;;;;;;;0.00;0.00;;;;;;;;;;5131300;27;20122;-58
2022/09/09 03:15:20;;;;;;;0.00;0.00;;;;;;;;;;5112340;28;20028;-58
2022/09/09 03:17:46;;;;;;;0.00;0.00;;;;;;;;;;5114502;27;20035;-58
2022/09/09 03:20:12;;;;;;;0.00;0.00;;;;;;;;;;5112431;28;20027;-59
2022/09/09 03:22:37;;;;;;;0.00;0.00;;;;;;;;;;5118832;27;20046;-59
2022/09/09 03:25:02;;;;;;;0.00;0.00;;;;;;;;;;5132466;27;20096;-59
2022/09/09 03:27:28;;;;;;;0.00;0.00;;;;;;;;;;5124583;27;20061;-60
2022/09/09 03:29:53;;;;;;;0.00;0.00;;;;;;;;;;5115969;27;20503;-60
2022/09/09 03:32:18;;;;;;;0.00;0.00;;;;;;;;;;5114575;27;20038;-59
2022/09/09 03:34:44;;;;;;;0.00;0.00;;;;;;;;;;5120846;27;20027;-59
2022/09/09 03:37:09;;;;;;;0.00;0.00;;;;;;;;;;5111900;28;20024;-59
2022/09/09 03:39:34;;;;;;;0.00;0.00;;;;;;;;;;5121002;27;20064;-59
2022/09/09 03:42:01;;;;;;;0.00;0.00;;;;;;;;;;5121075;27;20055;-59
2022/09/09 03:44:27;;;;;;;0.00;0.00;;;;;;;;;;5112496;27;20023;-60
2022/09/09 03:46:52;;;;;;;0.00;0.00;;;;;;;;;;5114129;27;20126;-60
2022/09/09 03:49:17;;;;;;;0.00;0.00;;;;;;;;;;5112273;27;20273;-59
2022/09/09 03:51:43;;;;;;;0.00;0.00;;;;;;;;;;5121062;27;20031;-60
2022/09/09 03:54:10;;;;;;;0.00;0.00;;;;;;;;;;5132237;27;20031;-59
2022/09/09 03:56:35;;;;;;;0.00;0.00;;;;;;;;;;5132649;27;20055;-60
2022/09/09 03:59:00;;;;;;;0.00;0.00;;;;;;;;;;5131780;27;20063;-59
2022/09/09 04:01:26;;;;;;;0.00;0.00;;;;;;;;;;5127120;27;20024;-59
2022/09/09 04:03:52;;;;;;;0.00;0.00;;;;;;;;;;5120429;27;20224;-59
2022/09/09 04:06:18;;;;;;;0.00;0.00;;;;;;;;;;5114538;27;20069;-59
2022/09/09 04:08:43;;;;;;;0.00;0.00;;;;;;;;;;5114378;27;20020;-58
2022/09/09 04:11:09;;;;;;;0.00;0.00;;;;;;;;;;5123221;27;20019;-59
2022/09/09 04:13:37;;;;;;;0.00;0.00;;;;;;;;;;5111776;27;20027;-58
2022/09/09 04:16:03;;;;;;;0.00;0.00;;;;;;;;;;5110995;28;20031;-58
2022/09/09 04:18:28;;;;;;;0.00;0.00;;;;;;;;;;5111718;27;20027;-59
2022/09/09 04:20:55;;;;;;;0.00;0.00;;;;;;;;;;5119686;27;20019;-59
2022/09/09 04:23:20;;;;;;;0.00;0.00;;;;;;;;;;5131563;27;20124;-58
2022/09/09 04:25:49;;;;;;;0.00;0.00;;;;;;;;;;5131957;27;20031;-58
2022/09/09 04:28:15;;;;;;;0.00;0.00;;;;;;;;;;5110836;27;20023;-58
2022/09/09 04:30:41;;;;;;;0.00;0.00;;;;;;;;;;5111910;27;20031;-58
2022/09/09 04:33:06;;;;;;;0.00;0.00;;;;;;;;;;5114355;27;20019;-59
2022/09/09 04:35:32;;;;;;;0.00;0.00;;;;;;;;;;5131536;27;20149;-59
2022/09/09 04:37:57;;;;;;;0.00;0.00;;;;;;;;;;5131569;27;20019;-59
2022/09/09 04:40:22;;;;;;;0.00;0.00;;;;;;;;;;5131036;27;20031;-59
2022/09/09 04:42:48;;;;;;;0.00;0.00;;;;;;;;;;5128277;27;20874;-60
2022/09/09 04:45:13;;;;;;;0.00;0.00;;;;;;;;;;5129484;27;20025;-59
2022/09/09 04:47:38;;;;;;;0.00;0.00;;;;;;;;;;5131018;27;20368;-59
2022/09/09 04:50:05;;;;;;;0.00;0.00;;;;;;;;;;5130649;27;20444;-60
2022/09/09 04:52:30;;;;;;;0.00;0.00;;;;;;;;;;5128428;27;20011;-59
2022/09/09 04:54:55;;;;;;;0.00;0.00;;;;;;;;;;5111600;27;20023;-59
2022/09/09 04:57:20;;;;;;;0.00;0.00;;;;;;;;;;5109398;28;20815;-60
2022/09/09 04:59:46;;;;;;;0.00;0.00;;;;;;;;;;5112245;27;20019;-59
2022/09/09 05:02:11;;;;;;;0.00;0.00;;;;;;;;;;5112396;27;20030;-59
2022/09/09 05:04:36;;;;;;;0.00;0.00;;;;;;;;;;5119129;27;20023;-59
2022/09/09 05:07:01;;;;;;;0.00;0.00;;;;;;;;;;5110275;28;20149;-59
2022/09/09 05:09:27;;;;;;;0.00;0.00;;;;;;;;;;5109791;28;20030;-59
2022/09/09 05:11:52;;;;;;;0.00;0.00;;;;;;;;;;5109590;28;20070;-58
2022/09/09 05:14:18;;;;;;;0.00;0.00;;;;;;;;;;5109670;28;20034;-59
2022/09/09 05:16:46;;;;;;;0.00;0.00;;;;;;;;;;5109396;27;20108;-59
2022/09/09 05:19:12;;;;;;;0.70;0.70;;;;;;;;;;5109322;28;20415;-59
2022/09/09 05:21:37;;;;;;;0.00;0.00;;;;;;;;;;5110101;27;20027;-59
2022/09/09 05:24:02;;;;;;;0.00;0.00;;;;;;;;;;5109818;28;20015;-60
2022/09/09 05:26:29;;;;;;;0.00;0.00;;;;;;;;;;5109426;28;20282;-60
2022/09/09 05:28:54;;;;;;;0.00;0.00;;;;;;;;;;5112926;27;20365;-59
2022/09/09 05:31:20;;;;;;;0.00;0.00;;;;;;;;;;5110835;27;20034;-60
2022/09/09 05:33:46;;;;;;;0.00;0.00;;;;;;;;;;5113711;27;20413;-60
2022/09/09 05:36:15;;;;;;;0.00;0.00;;;;;;;;;;5129547;27;20061;-59
2022/09/09 05:38:40;;;;;;;0.00;0.00;;;;;;;;;;5109640;28;20027;-59
2022/09/09 05:41:06;;;;;;;0.00;0.00;;;;;;;;;;5109217;28;20027;-60
2022/09/09 05:43:32;;;;;;;0.00;0.00;;;;;;;;;;5112544;27;20106;-60
2022/09/09 05:46:15;;;;;;;0.00;0.00;;;;;;;;;;5109601;28;20027;-60
2022/09/09 05:48:42;;;;;;;0.00;0.00;;;;;;;;;;5109558;27;20497;-59
2022/09/09 05:51:12;;;;;;;0.00;0.00;;;;;;;;;;5108857;28;20138;-59
2022/09/09 05:53:38;;;;;;;0.00;0.00;;;;;;;;;;5109229;28;20032;-60
2022/09/09 05:56:04;;;;;;;0.00;0.00;;;;;;;;;;5109426;28;20106;-60
2022/09/09 05:58:33;;;;;;;0.10;0.10;;;;;;;;;;5110692;27;20039;-60
2022/09/09 06:01:02;;;;;;;0.00;0.00;;;;;;;;;;5109502;27;20032;-59
2022/09/09 06:03:27;;;;;;;;;;;;;;;;;;5111711;27;20023;-60
2022/09/09 06:05:59;;;;;;;0.00;0.00;;;;;;;;;;5128970;27;19926;-61
2022/09/09 06:08:25;;;;;;;0.00;0.00;;;;;;;;;;5108886;28;20050;-59
2022/09/09 06:10:50;;;;;;;0.20;0.20;;;;;;;;;;5109412;28;20062;-59
2022/09/09 06:13:15;;;;;;;0.00;0.00;;;;;;;;;;5108649;27;20022;-61
2022/09/09 06:15:49;;;;;;;0.00;0.00;;;;;;;;;;5116658;27;20019;-60
2022/09/09 06:18:18;;;;;;;0.00;0.00;;;;;;;;;;5108461;28;20269;-59
2022/09/09 06:20:43;;;;;;;0.00;0.00;;;;;;;;;;5109176;28;20407;-59
2022/09/09 06:23:08;;;;;;;0.10;0.10;;;;;;;;;;5107184;28;20020;-60
2022/09/09 06:25:34;;;;;;;0.00;0.00;;;;;;;;;;5109367;27;20054;-60
2022/09/09 06:27:59;;;;;;;0.05;0.05;;;;;;;;;;5110645;27;20039;-60
2022/09/09 06:30:24;;;;;;;0.00;0.00;;;;;;;;;;5108767;28;20020;-58
2022/09/09 06:32:50;;;;;;;0.00;0.00;;;;;;;;;;5109606;27;20022;-59
2022/09/09 06:35:16;;;;;;;0.00;0.00;;;;;;;;;;5109822;27;20092;-60
2022/09/09 06:37:44;;;;;;;0.40;0.40;;;;;;;;;;5117231;28;20047;-59
2022/09/09 06:40:09;;;;;;;0.00;0.00;;;;;;;;;;5125502;27;20494;-61
2022/09/09 06:42:35;;;;;;;0.63;0.63;;;;;;;;;;5122290;27;20015;-60
2022/09/09 06:45:00;;;;;;;0.00;0.00;;;;;;;;;;5120664;27;20471;-60
2022/09/09 06:47:27;;;;;;;0.00;0.00;;;;;;;;;;5124514;28;20405;-60
2022/09/09 06:49:52;;;;;;;0.00;0.00;;;;;;;;;;5119452;27;20143;-59
2022/09/09 06:52:18;;;;;;;0.10;0.10;;;;;;;;;;5108285;28;20130;-60
2022/09/09 06:54:44;;;;;;;0.00;0.00;;;;;;;;;;5110043;28;20045;-60
2022/09/09 06:57:09;;;;;;;0.57;0.57;;;;;;;;;;5109693;27;20051;-60
2022/09/09 06:59:34;;;;;;;0.47;0.08;;;;;;;;;;5110227;28;20031;-60
2022/09/09 07:01:59;;;;;;;0.00;0.00;;;;;;;;;;5108521;28;20020;-59
2022/09/09 07:04:25;;;;;;;0.10;0.10;;;;;;;;;;5111530;28;20015;-61
2022/09/09 07:06:52;;;;;;;0.00;0.00;;;;;;;;;;5129047;27;20069;-61
2022/09/09 07:09:17;;;;;;;0.75;0.75;;;;;;;;;;5124924;27;20015;-61
2022/09/09 07:11:43;;;;;;;0.10;0.10;;;;;;;;;;5110837;27;20433;-61
2022/09/09 07:14:11;;;;;;;0.00;0.00;;;;;;;;;;5106888;28;20429;-61
2022/09/09 07:16:37;;;;;;;0.00;0.00;;;;;;;;;;5106886;28;20058;-60
2022/09/09 07:19:03;;;;;;;0.00;0.00;;;;;;;;;;5106990;28;20082;-60
2022/09/09 07:21:29;;;;;;;0.03;0.03;;;;;;;;;;5107535;28;20023;-61
2022/09/09 07:23:55;;;;;;;0.00;0.00;;;;;;;;;;5109889;28;20020;-61
2022/09/09 07:26:21;;;;;;;0.00;0.00;;;;;;;;;;5110559;28;20107;-61
2022/09/09 07:28:47;;;;;;;0.32;0.32;;;;;;;;;;5112447;27;20449;-60
2022/09/09 07:31:13;;;;;;;1.88;0.20;;;;;;;;;;5112198;27;20034;-61
2022/09/09 07:33:38;;;;;;;3.42;1.15;;;;;;;;;;5111139;27;20023;-60
2022/09/09 07:36:05;;;;;;;0.17;0.17;;;;;;;;;;5114332;27;20028;-60
2022/09/09 07:38:31;;;;;;;0.00;0.00;;;;;;;;;;5110912;28;20077;-60
2022/09/09 07:41:06;;;;;;;1.55;0.90;;;;;;;;;;5125491;27;20031;-60
2022/09/09 07:43:31;;;;;;;0.00;0.00;;;;;;;;;;5114300;27;20103;-60
2022/09/09 07:46:01;;;;;;;0.00;0.00;;;;;;;;;;5131701;27;20551;-59
2022/09/09 07:48:26;;;;;;;0.00;0.00;;;;;;;;;;5131172;27;20019;-59
2022/09/09 07:50:51;;;;;;;0.03;0.03;;;;;;;;;;5131138;27;20122;-59
2022/09/09 07:53:17;;;;;;;0.00;0.00;;;;;;;;;;5123678;27;20051;-59
2022/09/09 07:55:42;;;;;;;0.22;0.22;;;;;;;;;;5112636;27;20289;-60
2022/09/09 07:58:07;;;;;;;0.00;0.00;;;;;;;;;;5113719;27;20094;-59
2022/09/09 08:00:33;;;;;;;0.00;0.00;;;;;;;;;;5130386;27;20031;-60
2022/09/09 08:03:01;;;;;;;0.00;0.00;;;;;;;;;;5130490;27;20023;-60
2022/09/09 08:05:27;;;;;;;0.00;0.00;;;;;;;;;;5110507;28;20016;-59
2022/09/09 08:07:52;;;;;;;0.00;0.00;;;;;;;;;;5111298;27;20031;-59
2022/09/09 08:10:17;;;;;;;0.00;0.00;;;;;;;;;;5115839;27;20389;-59
2022/09/09 08:12:43;;;;;;;0.00;0.00;;;;;;;;;;5109708;28;20364;-59
2022/09/09 08:15:08;;;;;;;0.00;0.00;;;;;;;;;;5109314;28;20027;-59
2022/09/09 08:17:33;;;;;;;0.00;0.00;;;;;;;;;;5110365;28;20412;-59
2022/09/09 08:20:03;;;;;;;0.03;0.03;;;;;;;;;;5110640;27;20020;-59
2022/09/09 08:22:28;;;;;;;0.00;0.00;;;;;;;;;;5116490;27;20437;-59
2022/09/09 08:24:54;;;;;;;0.15;0.15;;;;;;;;;;5112641;27;20380;-58
2022/09/09 08:27:19;;;;;;;0.00;0.00;;;;;;;;;;5115953;27;20019;-59
2022/09/09 08:29:45;;;;;;;0.00;0.00;;;;;;;;;;5131496;27;20015;-59
2022/09/09 08:32:10;;;;;;;0.00;0.00;;;;;;;;;;5130086;27;20019;-60
2022/09/09 08:34:35;;;;;;;0.10;0.10;;;;;;;;;;5116374;27;21666;-59
2022/09/09 08:37:00;;;;;;;0.00;0.00;;;;;;;;;;5110454;27;20343;-60
2022/09/09 08:39:26;;;;;;;0.55;0.55;;;;;;;;;;5112199;27;20047;-60
2022/09/09 08:41:51;;;;;;;0.20;0.20;;;;;;;;;;5110258;28;20102;-60
2022/09/09 08:44:17;;;;;;;0.40;0.40;;;;;;;;;;5119123;27;20047;-60
2022/09/09 08:46:42;;;;;;;0.00;0.00;;;;;;;;;;5122824;27;20309;-59
2022/09/09 08:49:37;;;;;;;0.20;0.20;;;;;;;;;;5124256;27;20028;-59
2022/09/09 08:52:02;;;;;;;0.00;0.00;;;;;;;;;;5099502;27;20044;-59
2022/09/09 08:54:32;;;;;;;15.63;0.75;;;;;;;;;;5109531;28;20031;-60
2022/09/09 08:56:58;;;;;;;0.32;0.32;;;;;;;;;;5110203;27;20850;-60
2022/09/09 08:59:23;;;;;;;0.00;0.00;;;;;;;;;;5109930;27;20123;-60
2022/09/09 09:02:01;;;;;;;0.10;0.10;;;;;;;;;;5112634;27;20019;-60
2022/09/09 09:04:44;;;;;;;0.00;0.00;;;;;;;;;;5112454;27;20016;-59
2022/09/09 09:07:43;;;;;;;0.65;0.65;;;;;;;;;;5117518;27;20019;-59
2022/09/09 09:10:11;;;;;;;0.00;0.00;;;;;;;;;;5106043;27;20035;-59
2022/09/09 09:12:41;;;;;;;16.85;2.72;;;;;;;;;;5123889;27;20102;-59
2022/09/09 09:15:23;;;;;;;0.00;0.00;;;;;;;;;;5119746;27;20028;-60
2022/09/09 09:17:49;;;;;;;1.42;1.33;;;;;;;;;;5120654;27;20027;-60
2022/09/09 09:20:16;;;;;;;2.60;1.35;;;;;;;;;;5123423;27;20033;-60
2022/09/09 09:22:50;;;;;;;0.00;0.00;;;;;;;;;;5123503;27;20080;-60
2022/09/09 09:25:20;;;;;;;0.13;0.13;;;;;;;;;;5122834;27;20011;-60
2022/09/09 09:28:01;;;;;;;0.10;0.10;;;;;;;;;;5120455;27;20017;-60
2022/09/09 09:30:35;;;;;;;0.00;0.00;;;;;;;;;;5117681;27;20023;-60
2022/09/09 09:33:13;;;;;;;0.98;0.98;;;;;;;;;;5125866;27;20016;-59
2022/09/09 09:35:38;;;;;;;0.20;0.20;;;;;;;;;;5119948;27;20475;-59
2022/09/09 09:38:15;;;;;;;0.00;0.00;;;;;;;;;;5120376;27;20101;-58
2022/09/09 09:40:48;;;;;;;0.00;0.00;;;;;;;;;;5121997;27;20027;-60
2022/09/09 09:43:20;;;;;;;0.00;0.00;;;;;;;;;;5113419;27;20102;-59
2022/09/09 09:45:45;;;;;;;0.00;0.00;;;;;;;;;;5118079;27;20047;-59
2022/09/09 09:48:12;;;;;;;0.10;0.10;;;;;;;;;;5122014;27;20047;-59
2022/09/09 09:50:57;;;;;;;0.15;0.10;;;;;;;;;;5109669;27;20084;-59
2022/09/09 09:53:26;;;;;;;0.30;0.10;;;;;;;;;;5110489;27;20019;-60
2022/09/09 09:55:52;;;;;;;;;;;;;;;;;;5127450;27;20019;-60
2022/09/09 09:58:18;;;;;;;0.00;0.00;;;;;;;;;;5117477;27;19919;-59
2022/09/09 10:00:50;;;;;;;3.30;2.05;;;;;;;;;;5116722;27;20035;-60
2022/09/09 10:03:23;;;;;;;0.00;0.00;;;;;;;;;;5115754;27;20376;-60
2022/09/09 10:05:49;;;;;;;1.50;0.30;;;;;;;;;;5124916;27;20464;-60
2022/09/09 10:08:16;;;;;;;0.17;0.17;;;;;;;;;;5125163;27;20018;-60
2022/09/09 10:11:00;;;;;;;0.00;0.00;;;;;;;;;;5123428;27;20016;-60
2022/09/09 10:13:28;;;;;;;0.05;0.05;;;;;;;;;;5110761;27;20020;-60
2022/09/09 10:16:02;;;;;;;0.00;0.00;;;;;;;;;;5098817;27;20039;-60
2022/09/09 10:18:31;;;;;;;0.00;0.00;;;;;;;;;;5123480;27;20136;-60
2022/09/09 10:20:56;;;;;;;0.00;0.00;;;;;;;;;;5115742;27;20023;-60
2022/09/09 10:23:40;;;;;;;0.00;0.00;;;;;;;;;;5117330;27;20206;-60
2022/09/09 10:26:16;;;;;;;0.00;0.00;;;;;;;;;;5116554;27;20022;-60
2022/09/09 10:28:51;;;;;;;0.00;0.00;;;;;;;;;;5115943;27;20098;-60
2022/09/09 10:31:23;;;;;;;0.00;0.00;;;;;;;;;;5118985;27;20106;-60
2022/09/09 10:34:00;;;;;;;0.00;0.00;;;;;;;;;;5114842;27;20019;-61
2022/09/09 10:36:28;;;;;;;0.00;0.00;;;;;;;;;;5114759;27;20047;-60
2022/09/09 10:39:15;;;;;;;0.00;0.00;;;;;;;;;;5117799;28;20463;-60
2022/09/09 10:41:57;;;;;;;0.00;0.00;;;;;;;;;;5119232;28;20020;-60
2022/09/09 10:44:28;;;;;;;0.00;0.00;;;;;;;;;;5114922;28;20110;-59
2022/09/09 10:47:15;;;;;;;0.00;0.00;;;;;;;;;;5118878;28;21754;-61
2022/09/09 10:49:52;;;;;;;0.00;0.00;;;;;;;;;;5117857;28;20015;-60
2022/09/09 10:52:23;;;;;;;0.00;0.00;;;;;;;;;;5119845;28;20468;-60
2022/09/09 10:55:08;;;;;;;0.00;0.00;;;;;;;;;;5120740;28;20027;-61
2022/09/09 10:57:36;;;;;;;0.00;0.00;;;;;;;;;;5110958;28;20157;-61
2022/09/09 11:00:06;;;;;;;0.00;0.00;;;;;;;;;;5112274;27;20030;-59
2022/09/09 11:02:33;;;;;;;0.30;0.10;;;;;;;;;;5124911;27;20033;-60
2022/09/09 11:04:58;;;;;;;0.00;0.00;;;;;;;;;;5119821;27;20023;-59
2022/09/09 11:07:35;;;;;;;0.00;0.00;;;;;;;;;;5121923;27;20022;-62
2022/09/09 11:10:06;;;;;;;0.00;0.00;;;;;;;;;;5110586;28;20015;-62
2022/09/09 11:12:34;;;;;;;0.00;0.00;;;;;;;;;;5118428;27;20022;-61
2022/09/09 11:15:04;;;;;;;0.00;0.00;;;;;;;;;;5099911;28;20023;-61
2022/09/09 11:17:40;;;;;;;0.00;0.00;;;;;;;;;;5112316;27;20372;-62
2022/09/09 11:20:05;;;;;;;1.17;1.17;;;;;;;;;;5111903;28;20058;-63
2022/09/09 11:22:33;;;;;;;0.00;0.00;;;;;;;;;;5111501;27;20032;-62
2022/09/09 11:25:14;;;;;;;0.40;0.40;;;;;;;;;;5121665;27;20025;-60
2022/09/09 11:27:48;;;;;;;0.00;0.00;;;;;;;;;;5127920;27;21771;-60
2022/09/09 11:30:17;;;;;;;0.32;0.10;;;;;;;;;;5110416;28;20102;-61
2022/09/09 11:33:01;;;;;;;0.22;0.22;;;;;;;;;;5114185;27;20081;-61
2022/09/09 11:35:46;;;;;;;0.00;0.00;;;;;;;;;;5110894;27;20080;-61
2022/09/09 11:38:27;;;;;;;0.00;0.00;;;;;;;;;;5112426;27;20120;-61
2022/09/09 11:40:58;;;;;;;0.00;0.00;;;;;;;;;;5120906;27;20027;-61
2022/09/09 11:43:26;;;;;;;0.00;0.00;;;;;;;;;;5115932;27;20026;-61
2022/09/09 11:46:00;;;;;;;1.48;1.45;;;;;;;;;;5111446;27;20072;-61
2022/09/09 11:48:30;;;;;;;0.00;0.00;;;;;;;;;;5111226;27;20374;-61
2022/09/09 11:51:18;;;;;;;0.00;0.00;;;;;;;;;;5128361;27;20058;-61
2022/09/09 11:53:58;;;;;;;0.00;0.00;;;;;;;;;;5112630;27;20059;-61
2022/09/09 11:56:30;;;;;;;0.05;0.05;;;;;;;;;;5111705;27;20069;-60
2022/09/09 11:59:01;;;;;;;0.00;0.00;;;;;;;;;;5131770;27;20055;-61
2022/09/09 12:01:27;;;;;;;0.00;0.00;;;;;;;;;;5111757;27;20023;-62
2022/09/09 12:04:01;;;;;;;0.00;0.00;;;;;;;;;;5120363;27;20034;-59
2022/09/09 12:06:33;;;;;;;0.00;0.00;;;;;;;;;;5114172;27;20042;-61
2022/09/09 12:09:12;;;;;;;0.00;0.00;;;;;;;;;;5111320;27;20499;-59
2022/09/09 12:11:37;;;;;;;0.00;0.00;;;;;;;;;;5120858;27;20440;-60
2022/09/09 12:14:02;;;;;;;0.05;0.05;;;;;;;;;;5114813;27;20273;-59
2022/09/09 12:16:32;;;;;;;0.00;0.00;;;;;;;;;;5111378;27;20019;-59
2022/09/09 12:19:14;;;;;;;0.00;0.00;;;;;;;;;;5110811;28;20035;-59
2022/09/09 12:22:04;;;;;;;0.00;0.00;;;;;;;;;;5110896;28;20153;-60
2022/09/09 12:24:36;;;;;;;0.00;0.00;;;;;;;;;;5123234;27;20014;-60
2022/09/09 12:27:21;;;;;;;0.45;0.45;;;;;;;;;;5118327;27;20030;-61
2022/09/09 12:29:54;;;;;;;0.00;0.00;;;;;;;;;;5102481;27;20031;-60
2022/09/09 12:32:26;;;;;;;0.00;0.00;;;;;;;;;;5119901;27;20023;-61
2022/09/09 12:34:53;;;;;;;0.00;0.00;;;;;;;;;;5112476;27;20035;-60
2022/09/09 12:37:27;;;;;;;0.00;0.00;;;;;;;;;;5123960;27;20019;-60
2022/09/09 12:39:57;;;;;;;0.00;0.00;;;;;;;;;;5109032;27;20047;-60
2022/09/09 12:42:23;;;;;;;0.00;0.00;;;;;;;;;;5111385;27;20110;-60
2022/09/09 12:44:55;;;;;;;0.00;0.00;;;;;;;;;;5117584;27;20523;-60
2022/09/09 12:47:41;;;;;;;0.00;0.00;;;;;;;;;;5120611;27;20019;-61
2022/09/09 12:50:40;;;;;;;0.00;0.00;;;;;;;;;;5108279;27;20071;-60
2022/09/09 12:53:10;;;;;;;0.00;0.00;;;;;;;;;;5112114;27;20485;-60
2022/09/09 12:55:37;;;;;;;0.00;0.00;;;;;;;;;;5129626;27;20023;-60
2022/09/09 12:58:06;;;;;;;0.00;0.00;;;;;;;;;;5109992;27;20067;-60
2022/09/09 13:00:32;;;;;;;6.25;5.72;;;;;;;;;;5109272;27;20788;-61
2022/09/09 13:02:59;;;;;;;1.90;0.30;;;;;;;;;;5109605;27;20040;-61
2022/09/09 13:05:25;;;;;;;0.00;0.00;;;;;;;;;;5109572;28;20050;-64
2022/09/09 13:07:51;;;;;;;0.00;0.00;;;;;;;;;;5109548;27;20027;-60
2022/09/09 13:10:23;;;;;;;0.00;0.00;;;;;;;;;;5115932;27;20015;-59
2022/09/09 13:12:48;;;;;;;0.00;0.00;;;;;;;;;;5110568;27;20055;-60
2022/09/09 13:15:22;;;;;;;0.00;0.00;;;;;;;;;;5107844;27;20508;-61
2022/09/09 13:18:03;;;;;;;0.00;0.00;;;;;;;;;;5114174;27;20268;-61
2022/09/09 13:20:30;;;;;;;0.00;0.00;;;;;;;;;;5112293;27;20070;-61
2022/09/09 13:22:56;;;;;;;0.00;0.00;;;;;;;;;;5129591;27;20479;-61
2022/09/09 13:25:21;;;;;;;0.00;0.00;;;;;;;;;;5126972;27;20041;-61
2022/09/09 13:27:57;;;;;;;0.00;0.00;;;;;;;;;;5109471;27;20110;-62
2022/09/09 13:30:26;;;;;;;0.00;0.00;;;;;;;;;;5111873;27;20012;-61
2022/09/09 13:33:04;;;;;;;0.00;0.00;;;;;;;;;;5130245;27;20031;-61
2022/09/09 13:35:29;;;;;;;0.00;0.00;;;;;;;;;;5108943;27;20024;-61
2022/09/09 13:37:54;;;;;;;0.00;0.00;;;;;;;;;;5111898;27;20023;-60
2022/09/09 13:40:21;;;;;;;0.00;0.00;;;;;;;;;;5123125;27;21339;-60
2022/09/09 13:42:47;;;;;;;0.00;0.00;;;;;;;;;;5108919;27;20034;-61
2022/09/09 13:45:17;;;;;;;4.18;0.30;;;;;;;;;;5109995;28;20034;-61
2022/09/09 13:47:43;;;;;;;0.00;0.00;;;;;;;;;;5115072;27;20033;-62
2022/09/09 13:50:26;;;;;;;0.00;0.00;;;;;;;;;;5118839;27;20028;-61
2022/09/09 13:52:53;;;;;;;0.45;0.45;;;;;;;;;;5128370;27;20478;-60
2022/09/09 13:55:19;;;;;;;0.00;0.00;;;;;;;;;;5127961;27;20396;-60
2022/09/09 13:57:51;;;;;;;0.00;0.00;;;;;;;;;;5106719;28;20048;-61
2022/09/09 14:00:16;;;;;;;0.00;0.00;;;;;;;;;;5128695;27;20011;-61
2022/09/09 14:02:43;;;;;;;0.00;0.00;;;;;;;;;;5129579;27;20557;-62
2022/09/09 14:05:11;;;;;;;0.00;0.00;;;;;;;;;;5110040;27;20089;-62
2022/09/09 14:07:38;;;;;;;0.00;0.00;;;;;;;;;;5111831;27;21003;-60
2022/09/09 14:10:03;;;;;;;0.00;0.00;;;;;;;;;;5110279;27;20057;-62
2022/09/09 14:12:28;;;;;;;0.00;0.00;;;;;;;;;;5127707;27;20027;-60
2022/09/09 14:14:53;;;;;;;0.00;0.00;;;;;;;;;;5110114;27;20023;-60
2022/09/09 14:17:19;;;;;;;0.00;0.00;;;;;;;;;;5109242;27;20484;-59
2022/09/09 14:19:45;;;;;;;0.00;0.00;;;;;;;;;;5114422;27;20027;-60
2022/09/09 14:22:11;;;;;;;0.00;0.00;;;;;;;;;;5126258;27;20034;-60
2022/09/09 14:24:36;;;;;;;0.00;0.00;;;;;;;;;;5128970;27;20027;-59
2022/09/09 14:27:01;;;;;;;0.00;0.00;;;;;;;;;;5114277;27;20069;-59
2022/09/09 14:29:27;;;;;;;0.00;0.00;;;;;;;;;;5119251;27;20261;-61
2022/09/09 14:31:52;;;;;;;0.00;0.00;;;;;;;;;;5110687;28;20031;-60
2022/09/09 14:34:18;;;;;;;0.00;0.00;;;;;;;;;;5113622;28;20094;-61
2022/09/09 14:36:44;;;;;;;0.00;0.00;;;;;;;;;;5110994;28;20031;-60
2022/09/09 14:39:09;;;;;;;0.08;0.08;;;;;;;;;;5109527;28;20084;-61
2022/09/09 14:41:35;;;;;;;0.00;0.00;;;;;;;;;;5120165;28;20042;-60
2022/09/09 14:44:00;;;;;;;0.00;0.00;;;;;;;;;;5110523;27;20119;-60
2022/09/09 14:46:26;;;;;;;0.00;0.00;;;;;;;;;;5121234;28;20050;-60
2022/09/09 14:48:51;;;;;;;7.43;0.47;;;;;;;;;;5110386;27;20019;-62
2022/09/09 14:51:19;;;;;;;1.88;1.77;;;;;;;;;;5115590;28;20038;-60
2022/09/09 14:53:44;;;;;;;0.00;0.00;;;;;;;;;;5112882;27;20040;-61